Time;durP1;ratioP1;P1;durP2;ratioP2;P2;SDS_P1;SDS_P2;PMS_P1;PMS_P2;Temp;Humidity;BMP_temperature;BMP_pressure;BME280_temperature;BME280_humidity;BME280_pressure;Samples;Min_cycle;Max_cycle;Signal;HPM_P1;HPM_P2
2022/07/29 00:02:09;;;;;;;1.55;0.80;;;14.90;99.90;;;;;;5074564;28;20067;-68
2022/07/29 00:04:35;;;;;;;1.45;0.60;;;14.90;99.90;;;;;;5074462;28;20099;-69
2022/07/29 00:07:01;;;;;;;0.43;0.30;;;14.90;99.90;;;;;;5074439;28;20036;-68
2022/07/29 00:09:27;;;;;;;1.25;0.60;;;14.90;99.90;;;;;;5074101;28;20039;-68
2022/07/29 00:11:55;;;;;;;1.20;0.50;;;14.90;99.90;;;;;;5074093;28;20056;-69
2022/07/29 00:14:20;;;;;;;1.10;0.60;;;14.90;99.90;;;;;;5072668;28;20088;-68
2022/07/29 00:16:46;;;;;;;2.13;0.85;;;14.90;99.90;;;;;;5073942;28;20463;-69
2022/07/29 00:19:11;;;;;;;1.25;0.60;;;14.80;99.90;;;;;;5074142;28;20048;-68
2022/07/29 00:21:37;;;;;;;1.27;0.55;;;14.80;99.90;;;;;;5074130;28;20062;-68
2022/07/29 00:24:03;;;;;;;0.80;0.60;;;14.80;99.90;;;;;;5073801;28;20102;-69
2022/07/29 00:26:31;;;;;;;1.13;0.80;;;14.80;99.90;;;;;;5074051;28;20064;-68
2022/07/29 00:29:02;;;;;;;0.80;0.63;;;14.80;99.90;;;;;;5073998;28;20055;-69
2022/07/29 00:31:27;;;;;;;;;;;14.80;99.90;;;;;;5074329;28;20043;-69
2022/07/29 00:33:54;;;;;;;0.88;0.60;;;14.80;99.90;;;;;;5073838;28;20325;-69
2022/07/29 00:36:20;;;;;;;3.05;1.08;;;14.80;99.90;;;;;;5073838;28;20162;-68
2022/07/29 00:38:48;;;;;;;1.35;0.70;;;14.80;99.90;;;;;;5073800;28;20076;-69
2022/07/29 00:41:14;;;;;;;0.85;0.70;;;14.80;99.90;;;;;;5073766;28;20033;-68
2022/07/29 00:43:40;;;;;;;1.52;0.70;;;14.80;99.90;;;;;;5073741;28;20060;-69
2022/07/29 00:46:06;;;;;;;1.30;0.85;;;14.80;99.90;;;;;;5073408;28;20040;-68
2022/07/29 00:48:32;;;;;;;1.27;0.60;;;14.80;99.90;;;;;;5073267;28;20044;-68
2022/07/29 00:50:59;;;;;;;5.70;1.05;;;14.60;99.90;;;;;;5072822;28;20040;-69
2022/07/29 00:53:26;;;;;;;2.63;0.80;;;14.80;99.90;;;;;;5073562;28;20436;-69
2022/07/29 00:55:54;;;;;;;1.27;0.85;;;14.80;99.90;;;;;;5073603;28;20115;-68
2022/07/29 00:58:21;;;;;;;1.10;0.70;;;14.80;99.90;;;;;;5073170;28;20457;-68
2022/07/29 01:00:46;;;;;;;1.20;0.73;;;15.00;99.90;;;;;;5073481;28;20040;-69
2022/07/29 01:03:12;;;;;;;0.95;0.68;;;14.80;99.90;;;;;;5073093;28;20466;-69
2022/07/29 01:05:40;;;;;;;1.75;1.00;;;14.80;99.90;;;;;;5073412;28;20040;-68
2022/07/29 01:08:07;;;;;;;1.58;0.68;;;14.70;99.90;;;;;;5073361;28;20106;-68
2022/07/29 01:10:36;;;;;;;2.85;0.80;;;14.80;99.90;;;;;;5073310;28;20044;-69
2022/07/29 01:13:02;;;;;;;2.13;0.70;;;14.80;99.90;;;;;;5072811;28;20125;-68
2022/07/29 01:15:28;;;;;;;0.90;0.52;;;14.70;99.90;;;;;;5073348;28;20041;-69
2022/07/29 01:18:20;;;;;;;1.73;0.98;;;14.70;99.90;;;;;;5072909;28;20039;-68
2022/07/29 01:20:56;;;;;;;0.63;0.40;;;14.70;99.90;;;;;;5073178;28;20141;-69
2022/07/29 01:23:51;;;;;;;1.23;0.68;;;14.70;99.90;;;;;;5072930;28;20052;-68
2022/07/29 01:26:45;;;;;;;0.73;0.60;;;14.70;99.90;;;;;;5070351;28;20136;-70
2022/07/29 01:29:26;;;;;;;1.23;0.40;;;14.70;99.90;;;;;;5072933;28;20369;-69
2022/07/29 01:32:10;;;;;;;0.40;0.40;;;14.70;99.90;;;;;;5073163;28;20107;-69
2022/07/29 01:35:09;;;;;;;0.80;0.65;;;14.70;99.90;;;;;;5071535;28;20044;-68
2022/07/29 01:37:46;;;;;;;1.08;0.70;;;14.70;99.90;;;;;;5055965;28;20040;-68
2022/07/29 01:40:21;;;;;;;1.38;0.60;;;14.70;99.90;;;;;;5073079;28;20037;-69
2022/07/29 01:42:54;;;;;;;0.73;0.60;;;14.70;99.90;;;;;;5073059;28;20403;-68
2022/07/29 01:45:40;;;;;;;1.08;0.70;;;14.70;99.90;;;;;;5072658;28;20150;-68
2022/07/29 01:48:36;;;;;;;1.10;0.50;;;14.70;99.90;;;;;;5072698;28;20040;-68
2022/07/29 01:51:07;;;;;;;1.92;0.77;;;14.70;99.90;;;;;;5070327;28;20053;-69
2022/07/29 01:53:42;;;;;;;1.42;0.82;;;14.70;99.90;;;;;;5072853;28;20080;-68
2022/07/29 01:56:10;;;;;;;0.70;0.70;;;14.80;99.90;;;;;;5071627;28;20459;-68
2022/07/29 01:58:40;;;;;;;1.13;0.90;;;14.70;99.90;;;;;;5072892;28;20126;-68
2022/07/29 02:01:08;;;;;;;1.65;0.73;;;14.70;99.90;;;;;;5073853;28;20531;-69
2022/07/29 02:03:36;;;;;;;1.35;0.68;;;14.70;99.90;;;;;;5075388;28;20048;-68
2022/07/29 02:06:04;;;;;;;0.80;0.50;;;14.70;99.90;;;;;;5076764;28;20504;-69
2022/07/29 02:08:32;;;;;;;0.57;0.50;;;14.70;99.90;;;;;;5076707;28;20052;-69
2022/07/29 02:11:00;;;;;;;1.15;0.60;;;14.70;99.90;;;;;;5076751;28;20111;-68
2022/07/29 02:13:27;;;;;;;1.67;0.73;;;14.70;99.90;;;;;;5076160;28;20052;-68
2022/07/29 02:15:55;;;;;;;2.22;0.90;;;14.70;99.90;;;;;;5076615;28;20040;-68
2022/07/29 02:18:23;;;;;;;0.88;0.50;;;14.70;99.90;;;;;;5076165;28;20116;-67
2022/07/29 02:20:53;;;;;;;1.38;0.70;;;14.60;99.90;;;;;;5076219;28;20044;-68
2022/07/29 02:23:22;;;;;;;0.73;0.52;;;14.70;99.90;;;;;;5076417;28;20040;-68
2022/07/29 02:25:50;;;;;;;2.20;0.75;;;14.70;99.90;;;;;;5075982;28;20094;-68
2022/07/29 02:28:18;;;;;;;0.52;0.47;;;14.70;99.90;;;;;;5076295;28;20049;-68
2022/07/29 02:30:45;;;;;;;1.77;0.90;;;14.70;99.90;;;;;;5075946;28;20127;-68
2022/07/29 02:33:14;;;;;;;0.63;0.40;;;14.60;99.90;;;;;;5076174;28;20590;-68
2022/07/29 02:35:41;;;;;;;0.52;0.52;;;14.60;99.90;;;;;;5075748;28;20048;-67
2022/07/29 02:40:58;;;;;;;2.38;0.80;;;14.60;99.90;;;;;;5076112;28;20063;-68
2022/07/29 02:43:25;;;;;;;0.43;0.40;;;14.60;99.90;;;;;;5076013;28;20392;-68
2022/07/29 02:45:54;;;;;;;0.70;0.45;;;14.60;99.90;;;;;;5075998;28;20111;-68
2022/07/29 02:48:27;;;;;;;1.15;0.73;;;14.60;99.90;;;;;;5075589;28;20045;-68
2022/07/29 02:51:04;;;;;;;2.85;0.95;;;14.60;99.90;;;;;;5075870;28;20041;-68
2022/07/29 02:53:33;;;;;;;1.10;0.52;;;14.60;99.90;;;;;;5075493;28;20044;-68
2022/07/29 02:56:11;;;;;;;1.75;0.70;;;14.50;99.90;;;;;;5075813;28;20564;-68
2022/07/29 02:58:53;;;;;;;3.83;0.68;;;14.60;99.90;;;;;;5075786;28;20388;-68
2022/07/29 03:01:28;;;;;;;1.23;0.60;;;14.60;99.90;;;;;;5075761;28;20524;-68
2022/07/29 03:03:55;;;;;;;0.57;0.57;;;14.60;99.90;;;;;;5075715;28;20074;-68
2022/07/29 03:06:23;;;;;;;0.65;0.55;;;14.60;99.90;;;;;;5075562;28;20083;-68
2022/07/29 03:08:50;;;;;;;1.05;0.70;;;14.50;99.90;;;;;;5075616;28;20139;-69
2022/07/29 03:11:17;;;;;;;0.95;0.70;;;14.50;99.90;;;;;;5075078;28;20091;-68
2022/07/29 03:13:43;;;;;;;0.68;0.55;;;14.60;99.90;;;;;;5074100;28;20047;-68
2022/07/29 03:16:10;;;;;;;1.17;0.52;;;14.50;99.90;;;;;;5075096;28;20044;-68
2022/07/29 03:18:37;;;;;;;1.30;0.73;;;14.50;99.90;;;;;;5075158;28;20044;-68
2022/07/29 03:21:03;;;;;;;4.25;0.68;;;14.50;99.90;;;;;;5075313;28;20116;-68
2022/07/29 03:23:29;;;;;;;2.47;0.70;;;14.50;99.90;;;;;;5075316;28;20044;-68
2022/07/29 03:25:55;;;;;;;1.83;0.88;;;14.50;99.90;;;;;;5075302;28;20400;-67
2022/07/29 03:28:22;;;;;;;1.00;0.70;;;14.40;99.90;;;;;;5075215;28;20036;-68
2022/07/29 03:30:48;;;;;;;0.65;0.60;;;14.50;99.90;;;;;;5074917;28;20032;-68
2022/07/29 03:33:14;;;;;;;0.85;0.80;;;14.40;99.90;;;;;;5074710;28;20037;-68
2022/07/29 03:35:40;;;;;;;1.15;0.70;;;14.40;99.90;;;;;;5075192;28;20048;-68
2022/07/29 03:38:05;;;;;;;1.17;0.60;;;14.40;99.90;;;;;;5073524;28;20043;-68
2022/07/29 03:40:36;;;;;;;0.80;0.75;;;14.40;99.90;;;;;;5074962;28;20372;-68
2022/07/29 03:43:02;;;;;;;;;;;14.40;99.90;;;;;;5073860;28;20048;-68
2022/07/29 03:45:31;;;;;;;1.00;0.60;;;14.40;99.90;;;;;;5074965;28;19920;-68
2022/07/29 03:48:01;;;;;;;1.02;0.70;;;14.40;99.90;;;;;;5074976;28;20506;-68
2022/07/29 03:50:29;;;;;;;1.50;0.80;;;14.50;99.90;;;;;;5074857;28;20041;-68
2022/07/29 03:52:55;;;;;;;1.90;0.70;;;14.40;99.90;;;;;;5073490;28;20131;-68
2022/07/29 03:55:21;;;;;;;0.85;0.60;;;14.40;99.90;;;;;;5074736;28;20524;-68
2022/07/29 03:57:49;;;;;;;1.10;0.85;;;14.40;99.90;;;;;;5074364;28;20116;-68
2022/07/29 04:00:15;;;;;;;1.85;0.90;;;14.40;99.90;;;;;;5074577;28;20396;-68
2022/07/29 04:02:46;;;;;;;1.13;0.57;;;14.40;99.90;;;;;;5074255;28;20561;-68
2022/07/29 04:05:13;;;;;;;2.35;0.80;;;12.70;99.90;;;;;;5074175;28;20097;-68
2022/07/29 04:07:40;;;;;;;1.38;0.77;;;14.60;99.90;;;;;;5073126;28;20048;-68
2022/07/29 04:10:07;;;;;;;1.50;0.80;;;14.40;99.90;;;;;;5074401;28;20407;-68
2022/07/29 04:12:32;;;;;;;4.53;1.00;;;14.40;99.90;;;;;;5073786;28;20053;-68
2022/07/29 04:14:58;;;;;;;4.55;0.90;;;14.40;99.90;;;;;;5074326;28;20048;-69
2022/07/29 04:17:24;;;;;;;1.23;0.80;;;14.40;99.90;;;;;;5073921;28;20426;-68
2022/07/29 04:19:49;;;;;;;0.90;0.60;;;14.40;99.90;;;;;;5074162;28;20041;-68
2022/07/29 04:22:15;;;;;;;0.85;0.77;;;14.40;99.90;;;;;;5074151;28;20029;-68
2022/07/29 04:24:40;;;;;;;1.00;0.63;;;14.40;99.90;;;;;;5073950;28;20476;-69
2022/07/29 04:27:06;;;;;;;4.45;0.77;;;14.40;99.90;;;;;;5074046;28;20041;-68
2022/07/29 04:29:32;;;;;;;1.33;0.65;;;14.40;99.90;;;;;;5073953;28;20044;-68
2022/07/29 04:31:57;;;;;;;3.08;0.52;;;14.40;99.90;;;;;;5074010;28;20045;-68
2022/07/29 04:34:23;;;;;;;3.60;0.80;;;14.40;99.90;;;;;;5073797;28;20140;-68
2022/07/29 04:36:48;;;;;;;2.67;0.80;;;14.40;99.90;;;;;;5073831;28;20032;-68
2022/07/29 04:39:14;;;;;;;1.38;0.80;;;14.30;99.90;;;;;;5073869;28;20036;-68
2022/07/29 04:41:40;;;;;;;2.75;0.60;;;14.30;99.90;;;;;;5073733;28;20050;-68
2022/07/29 04:44:06;;;;;;;1.02;0.63;;;14.40;99.90;;;;;;5073721;28;20058;-68
2022/07/29 04:46:32;;;;;;;1.95;1.00;;;14.30;99.90;;;;;;5073693;28;20033;-68
2022/07/29 04:48:57;;;;;;;1.23;0.75;;;14.40;99.90;;;;;;5073698;28;20076;-68
2022/07/29 04:51:23;;;;;;;0.93;0.70;;;14.30;99.90;;;;;;5073545;28;20076;-68
2022/07/29 04:53:49;;;;;;;1.10;0.55;;;14.40;99.90;;;;;;5072293;28;20434;-68
2022/07/29 04:56:14;;;;;;;1.30;0.80;;;14.50;99.90;;;;;;5073546;28;20523;-68
2022/07/29 04:58:40;;;;;;;0.60;0.60;;;14.40;99.90;;;;;;5073226;28;20067;-68
2022/07/29 05:01:05;;;;;;;2.05;1.05;;;14.40;99.90;;;;;;5073448;28;20119;-68
2022/07/29 05:03:31;;;;;;;0.65;0.60;;;14.50;99.90;;;;;;5073487;28;20438;-68
2022/07/29 05:05:57;;;;;;;1.05;0.75;;;14.60;99.90;;;;;;5055502;28;20048;-69
2022/07/29 05:08:22;;;;;;;0.85;0.70;;;14.50;99.90;;;;;;5073447;28;20140;-69
2022/07/29 05:10:48;;;;;;;0.90;0.65;;;14.60;99.90;;;;;;5073386;28;20043;-68
2022/07/29 05:13:14;;;;;;;4.63;1.00;;;14.60;99.90;;;;;;5072881;28;20056;-68
2022/07/29 05:15:39;;;;;;;2.63;0.90;;;14.60;99.90;;;;;;5071740;28;20483;-68
2022/07/29 05:18:05;;;;;;;0.57;0.57;;;14.70;99.90;;;;;;5073253;28;20037;-68
2022/07/29 05:20:32;;;;;;;1.70;0.90;;;14.70;99.90;;;;;;5072973;28;20102;-67
2022/07/29 05:22:59;;;;;;;1.88;0.80;;;14.70;99.90;;;;;;5072979;28;20407;-68
2022/07/29 05:25:27;;;;;;;0.60;0.50;;;14.80;99.90;;;;;;5073214;28;20076;-68
2022/07/29 05:27:52;;;;;;;1.17;0.77;;;14.80;99.90;;;;;;5073199;28;20037;-68
2022/07/29 05:30:18;;;;;;;0.98;0.77;;;14.80;99.90;;;;;;5073119;28;20046;-69
2022/07/29 05:32:44;;;;;;;1.48;1.00;;;14.80;99.90;;;;;;5073027;28;20473;-68
2022/07/29 05:35:10;;;;;;;1.88;0.93;;;14.80;99.90;;;;;;5071405;28;20443;-68
2022/07/29 05:37:36;;;;;;;1.35;0.77;;;15.10;99.90;;;;;;5072679;28;20055;-68
2022/07/29 05:40:02;;;;;;;1.65;0.77;;;14.90;99.90;;;;;;5072985;28;20438;-68
2022/07/29 05:42:28;;;;;;;0.82;0.70;;;14.90;99.90;;;;;;5073042;28;20116;-68
2022/07/29 05:44:55;;;;;;;2.35;0.70;;;14.90;99.90;;;;;;5072716;28;20075;-69
2022/07/29 05:47:21;;;;;;;1.15;0.70;;;14.90;99.90;;;;;;5072847;28;20037;-67
2022/07/29 05:49:47;;;;;;;4.15;1.52;;;14.90;99.90;;;;;;5071318;28;20052;-68
2022/07/29 05:52:15;;;;;;;0.80;0.70;;;15.00;99.90;;;;;;5072441;28;20033;-68
2022/07/29 05:54:41;;;;;;;0.68;0.60;;;15.00;99.90;;;;;;5072756;28;20040;-68
2022/07/29 05:57:06;;;;;;;0.70;0.63;;;15.10;99.90;;;;;;5072542;28;20400;-68
2022/07/29 05:59:38;;;;;;;4.05;1.10;;;15.10;99.90;;;;;;5071546;28;20488;-68
2022/07/29 06:02:07;;;;;;;2.58;1.13;;;15.10;99.90;;;;;;5072758;28;20392;-68
2022/07/29 06:04:33;;;;;;;1.40;0.90;;;15.10;99.90;;;;;;5072750;28;20032;-67
2022/07/29 06:06:59;;;;;;;1.55;1.02;;;15.10;99.90;;;;;;5072744;28;20111;-67
2022/07/29 06:09:25;;;;;;;0.98;0.77;;;15.20;99.90;;;;;;5072709;28;20464;-67
2022/07/29 06:11:52;;;;;;;1.88;0.95;;;15.20;99.90;;;;;;5072254;28;20115;-67
2022/07/29 06:14:18;;;;;;;1.23;0.85;;;15.20;99.90;;;;;;5072347;28;20048;-68
2022/07/29 06:16:43;;;;;;;1.70;0.82;;;15.30;99.90;;;;;;5072466;28;20052;-68
2022/07/29 06:19:09;;;;;;;1.10;0.95;;;15.30;99.90;;;;;;5072615;28;20094;-68
2022/07/29 06:21:35;;;;;;;2.38;1.00;;;15.50;99.90;;;;;;5072609;28;20049;-67
2022/07/29 06:24:00;;;;;;;2.35;0.90;;;15.40;99.90;;;;;;5072605;28;20037;-68
2022/07/29 06:26:26;;;;;;;1.33;0.95;;;15.60;99.90;;;;;;5072579;28;20047;-68
2022/07/29 06:28:52;;;;;;;2.67;1.10;;;15.70;99.90;;;;;;5070933;28;20044;-68
2022/07/29 06:31:17;;;;;;;2.67;0.80;;;15.70;99.90;;;;;;5072214;28;20123;-68
2022/07/29 06:33:43;;;;;;;0.90;0.82;;;15.70;99.90;;;;;;5072374;28;20041;-68
2022/07/29 06:36:08;;;;;;;5.30;0.80;;;15.70;99.90;;;;;;5072494;28;20041;-67
2022/07/29 06:38:34;;;;;;;5.05;1.00;;;15.80;99.90;;;;;;5072407;28;20373;-69
2022/07/29 06:41:04;;;;;;;1.25;0.77;;;16.20;99.90;;;;;;5072438;28;20464;-68
2022/07/29 06:43:37;;;;;;;0.95;0.70;;;16.20;99.90;;;;;;5070911;28;20123;-68
2022/07/29 06:46:08;;;;;;;1.75;0.85;;;16.10;99.90;;;;;;5072123;28;20467;-68
2022/07/29 06:48:35;;;;;;;2.65;0.90;;;16.00;99.90;;;;;;5073925;28;20036;-68
2022/07/29 06:51:02;;;;;;;1.30;1.13;;;16.00;99.90;;;;;;5075877;28;20447;-68
2022/07/29 06:53:29;;;;;;;2.25;0.80;;;15.90;99.90;;;;;;5075685;28;20044;-68
2022/07/29 06:55:55;;;;;;;2.20;1.00;;;15.80;99.90;;;;;;5075807;28;20480;-69
2022/07/29 06:58:21;;;;;;;2.25;1.02;;;15.90;99.90;;;;;;5075759;28;20075;-68
2022/07/29 07:00:47;;;;;;;0.98;0.80;;;15.90;99.90;;;;;;5075758;28;20432;-69
2022/07/29 07:03:14;;;;;;;1.88;1.00;;;15.90;99.90;;;;;;5075710;28;20040;-68
2022/07/29 07:05:40;;;;;;;3.20;0.90;;;16.00;99.90;;;;;;5075637;28;20044;-69
2022/07/29 07:08:06;;;;;;;1.15;0.90;;;16.00;99.90;;;;;;5075663;28;20040;-68
2022/07/29 07:10:32;;;;;;;0.80;0.70;;;16.20;99.90;;;;;;5075699;28;20549;-68
2022/07/29 07:13:00;;;;;;;1.38;0.82;;;16.40;99.90;;;;;;5073952;28;20102;-70
2022/07/29 07:15:25;;;;;;;0.93;0.70;;;16.10;99.90;;;;;;5075092;28;20045;-68
2022/07/29 07:17:51;;;;;;;3.08;1.15;;;16.20;99.90;;;;;;5075423;28;20036;-68
2022/07/29 07:20:17;;;;;;;0.85;0.68;;;16.20;99.90;;;;;;5075329;28;20041;-68
2022/07/29 07:22:43;;;;;;;0.93;0.80;;;16.20;99.90;;;;;;5075173;28;20033;-69
2022/07/29 07:25:10;;;;;;;1.48;0.90;;;16.20;99.90;;;;;;5075233;28;20154;-69
2022/07/29 07:27:36;;;;;;;2.10;1.00;;;16.30;99.90;;;;;;5075047;28;20044;-69
2022/07/29 07:30:05;;;;;;;2.47;1.00;;;16.40;99.90;;;;;;5075259;28;20040;-69
2022/07/29 07:32:31;;;;;;;2.08;1.05;;;16.40;99.90;;;;;;5075011;28;20044;-68
2022/07/29 07:34:58;;;;;;;2.25;1.25;;;16.50;99.90;;;;;;5074812;28;20106;-68
2022/07/29 07:37:24;;;;;;;2.28;1.02;;;16.60;99.90;;;;;;5074870;28;20539;-67
2022/07/29 07:39:51;;;;;;;1.25;0.80;;;16.60;99.90;;;;;;5075036;28;20408;-68
2022/07/29 07:42:17;;;;;;;1.63;1.00;;;16.70;99.90;;;;;;5075112;28;20139;-68
2022/07/29 07:44:43;;;;;;;1.83;1.02;;;16.80;99.90;;;;;;5074871;28;20083;-68
2022/07/29 07:47:09;;;;;;;1.80;0.98;;;16.90;99.90;;;;;;5074733;28;20033;-68
2022/07/29 07:49:34;;;;;;;1.60;0.93;;;16.90;99.90;;;;;;5073552;28;20032;-68
2022/07/29 07:52:00;;;;;;;1.58;0.80;;;17.00;99.90;;;;;;5074743;28;20120;-67
2022/07/29 07:54:26;;;;;;;4.30;1.20;;;17.10;99.90;;;;;;5074233;28;20044;-67
2022/07/29 07:56:51;;;;;;;3.95;1.10;;;17.20;99.90;;;;;;5074351;28;20040;-68
2022/07/29 07:59:17;;;;;;;1.42;1.00;;;17.30;99.90;;;;;;5074122;28;20406;-69
2022/07/29 08:01:43;;;;;;;2.88;0.90;;;17.50;99.90;;;;;;5074501;28;20040;-67
2022/07/29 08:04:08;;;;;;;2.58;0.88;;;17.30;99.90;;;;;;5074523;28;20520;-69
2022/07/29 08:06:35;;;;;;;1.92;0.90;;;17.40;99.90;;;;;;5074486;28;20472;-69
2022/07/29 08:09:02;;;;;;;1.45;1.00;;;17.40;99.90;;;;;;5074184;28;20044;-69
2022/07/29 08:11:28;;;;;;;1.88;1.00;;;17.50;99.90;;;;;;5073910;28;20056;-68
2022/07/29 08:13:54;;;;;;;1.95;0.98;;;17.60;99.90;;;;;;5072760;28;20045;-68
2022/07/29 08:16:20;;;;;;;2.45;1.20;;;17.60;99.90;;;;;;5074241;28;20107;-68
2022/07/29 08:18:46;;;;;;;2.25;1.00;;;17.80;99.90;;;;;;5074255;28;20471;-68
2022/07/29 08:21:13;;;;;;;3.92;0.90;;;17.80;99.90;;;;;;5074102;28;20387;-68
2022/07/29 08:23:44;;;;;;;2.97;1.10;;;17.80;99.90;;;;;;5073778;28;20080;-68
2022/07/29 08:26:10;;;;;;;2.85;1.38;;;17.70;99.90;;;;;;5074077;28;20111;-68
2022/07/29 08:28:39;;;;;;;2.08;0.93;;;17.80;99.90;;;;;;5073989;28;20116;-67
2022/07/29 08:31:06;;;;;;;1.02;0.80;;;17.80;99.90;;;;;;5074043;28;20075;-68
2022/07/29 08:33:32;;;;;;;2.25;1.17;;;17.70;99.90;;;;;;5073828;28;20033;-68
2022/07/29 08:35:58;;;;;;;1.33;0.90;;;17.80;99.90;;;;;;5073652;28;20047;-68
2022/07/29 08:38:25;;;;;;;1.17;0.80;;;17.90;99.90;;;;;;5073800;28;20028;-68
2022/07/29 08:40:52;;;;;;;1.85;1.13;;;17.90;99.90;;;;;;5073806;28;20040;-69
2022/07/29 08:43:18;;;;;;;2.92;1.20;;;17.80;99.90;;;;;;5073794;28;20033;-68
2022/07/29 08:45:46;;;;;;;3.88;1.30;;;17.70;99.90;;;;;;5073662;28;20040;-69
2022/07/29 08:48:14;;;;;;;6.93;1.20;;;17.70;99.90;;;;;;5072087;28;20079;-68
2022/07/29 08:50:41;;;;;;;4.82;1.20;;;17.70;99.90;;;;;;5073338;28;20127;-68
2022/07/29 08:53:10;;;;;;;1.55;0.90;;;17.70;99.90;;;;;;5073227;28;20036;-68
2022/07/29 08:55:42;;;;;;;2.03;1.13;;;17.70;99.90;;;;;;5072286;28;20123;-67
2022/07/29 08:58:08;;;;;;;1.90;1.00;;;17.70;99.90;;;;;;5072062;28;20036;-68
2022/07/29 09:00:36;;;;;;;1.90;1.10;;;17.80;99.90;;;;;;5073405;28;20098;-68
2022/07/29 09:03:04;;;;;;;4.18;1.42;;;17.90;99.90;;;;;;5073410;28;20040;-68
2022/07/29 09:05:32;;;;;;;2.78;1.20;;;17.90;99.90;;;;;;5073383;28;20053;-68
2022/07/29 09:07:59;;;;;;;5.10;1.08;;;17.90;99.90;;;;;;5073444;28;20040;-69
2022/07/29 09:10:25;;;;;;;1.08;0.90;;;17.80;99.90;;;;;;5072408;28;20044;-70
2022/07/29 09:12:52;;;;;;;1.88;1.08;;;17.90;99.90;;;;;;5072881;28;20051;-68
2022/07/29 09:15:18;;;;;;;1.30;1.00;;;18.00;99.90;;;;;;5071822;28;20041;-68
2022/07/29 09:17:46;;;;;;;2.33;1.20;;;18.00;99.90;;;;;;5073285;28;20116;-68
2022/07/29 09:20:15;;;;;;;2.67;1.40;;;18.10;99.90;;;;;;5073164;28;20112;-68
2022/07/29 09:22:41;;;;;;;2.03;1.20;;;18.20;99.90;;;;;;5073175;28;20052;-68
2022/07/29 09:25:07;;;;;;;1.95;1.10;;;18.40;99.90;;;;;;5072874;28;20102;-68
2022/07/29 09:27:34;;;;;;;1.92;1.10;;;18.50;99.90;;;;;;5071588;28;20051;-68
2022/07/29 09:30:12;;;;;;;2.90;1.20;;;18.50;99.90;;;;;;5072898;28;20054;-68
2022/07/29 09:32:58;;;;;;;2.17;1.38;;;18.50;99.90;;;;;;5071491;28;20052;-68
2022/07/29 09:35:25;;;;;;;2.25;1.23;;;18.50;99.90;;;;;;5071456;28;20059;-68
2022/07/29 09:37:52;;;;;;;1.60;0.93;;;18.60;99.90;;;;;;5073031;28;20421;-69
2022/07/29 09:40:23;;;;;;;4.75;1.20;;;18.60;99.90;;;;;;5072759;28;20167;-68
2022/07/29 09:42:50;;;;;;;3.97;1.30;;;18.60;99.90;;;;;;5072976;28;20052;-68
2022/07/29 09:45:26;;;;;;;2.72;1.27;;;18.50;99.90;;;;;;5073012;28;20387;-69
2022/07/29 09:47:53;;;;;;;1.73;1.08;;;18.60;99.90;;;;;;5072934;28;20492;-68
2022/07/29 09:50:23;;;;;;;3.50;1.50;;;18.60;99.90;;;;;;5071714;28;20411;-68
2022/07/29 09:52:53;;;;;;;3.40;1.35;;;18.60;99.90;;;;;;5072840;28;20521;-68
2022/07/29 09:55:19;;;;;;;1.33;0.98;;;18.70;99.90;;;;;;5072631;28;20150;-68
2022/07/29 09:57:46;;;;;;;2.55;1.38;;;18.70;99.90;;;;;;5072849;28;20082;-67
2022/07/29 10:00:17;;;;;;;2.60;1.38;;;18.60;99.90;;;;;;5072781;28;20041;-68
2022/07/29 10:02:45;;;;;;;2.65;1.60;;;18.50;99.90;;;;;;5072823;28;20101;-68
2022/07/29 10:05:21;;;;;;;2.95;1.52;;;18.50;99.90;;;;;;5071603;28;20384;-69
2022/07/29 10:07:56;;;;;;;2.92;1.40;;;18.40;99.90;;;;;;5072813;28;20464;-68
2022/07/29 10:10:26;;;;;;;1.98;1.15;;;18.50;99.90;;;;;;5072442;28;20049;-68
2022/07/29 10:12:57;;;;;;;1.90;1.50;;;18.50;99.90;;;;;;5072263;28;20080;-70
2022/07/29 10:15:31;;;;;;;2.70;1.38;;;18.50;99.90;;;;;;5072435;28;20055;-68
2022/07/29 10:17:59;;;;;;;2.00;1.23;;;18.70;99.90;;;;;;5072376;28;20037;-70
2022/07/29 10:20:26;;;;;;;1.67;1.20;;;18.70;99.90;;;;;;5072614;28;20036;-68
2022/07/29 10:22:53;;;;;;;1.77;1.35;;;18.80;99.90;;;;;;5074714;28;20076;-68
2022/07/29 10:25:20;;;;;;;2.80;1.20;;;18.90;99.90;;;;;;5076165;28;20032;-68
2022/07/29 10:27:47;;;;;;;2.38;1.23;;;19.00;99.90;;;;;;5076325;28;20111;-69
2022/07/29 10:30:15;;;;;;;2.92;1.40;;;19.20;99.90;;;;;;5076335;28;20054;-68
2022/07/29 10:33:11;;;;;;;4.82;1.65;;;19.30;99.90;;;;;;5076177;28;20048;-70
2022/07/29 10:35:58;;;;;;;2.85;1.40;;;19.40;99.90;;;;;;5075928;28;20123;-69
2022/07/29 10:38:42;;;;;;;2.38;1.35;;;19.40;99.90;;;;;;5076251;28;20063;-68
2022/07/29 10:41:29;;;;;;;2.85;1.20;;;19.40;99.90;;;;;;5076194;28;20115;-68
2022/07/29 10:44:13;;;;;;;2.10;1.50;;;19.50;99.90;;;;;;5076213;28;20132;-68
2022/07/29 10:46:40;;;;;;;2.35;1.00;;;19.60;99.90;;;;;;5076149;28;20059;-69
2022/07/29 10:49:25;;;;;;;2.38;1.50;;;19.80;99.90;;;;;;5075753;28;20396;-69
2022/07/29 10:51:51;;;;;;;2.03;1.27;;;20.00;99.90;;;;;;5076017;28;20047;-68
2022/07/29 10:54:38;;;;;;;3.15;1.67;;;20.10;99.90;;;;;;5075792;28;20476;-69
2022/07/29 10:57:15;;;;;;;1.92;1.20;;;20.00;99.90;;;;;;5075257;28;20052;-68
2022/07/29 10:59:44;;;;;;;2.78;1.48;;;20.10;99.90;;;;;;5075466;28;20411;-69
2022/07/29 11:02:32;;;;;;;2.03;1.20;;;20.10;99.90;;;;;;5075495;28;20127;-68
2022/07/29 11:04:57;;;;;;;2.22;1.30;;;20.10;99.90;;;;;;5075318;28;20044;-69
2022/07/29 11:07:24;;;;;;;2.80;1.38;;;20.10;99.90;;;;;;5075314;28;20101;-69
2022/07/29 11:10:11;;;;;;;2.38;1.35;;;20.10;99.90;;;;;;5075607;28;20049;-69
2022/07/29 11:12:37;;;;;;;2.28;1.30;;;20.10;99.90;;;;;;5074961;28;20052;-69
2022/07/29 11:15:08;;;;;;;2.13;1.20;;;20.20;99.90;;;;;;5075494;28;20140;-68
2022/07/29 11:17:52;;;;;;;5.80;1.60;;;20.20;99.90;;;;;;5075434;28;20029;-68
2022/07/29 11:20:41;;;;;;;2.85;1.42;;;20.30;99.90;;;;;;5075107;28;20036;-69
2022/07/29 11:23:21;;;;;;;2.60;1.48;;;20.30;99.90;;;;;;5075358;28;20090;-69
2022/07/29 11:26:09;;;;;;;2.28;1.30;;;20.30;99.90;;;;;;5075315;28;20041;-68
2022/07/29 11:28:48;;;;;;;2.80;1.92;;;20.30;99.90;;;;;;5074763;28;20095;-68
2022/07/29 11:31:16;;;;;;;3.10;1.33;;;20.20;99.90;;;;;;5075175;28;20404;-69
2022/07/29 11:33:42;;;;;;;2.92;1.40;;;20.20;99.90;;;;;;5073159;28;20483;-69
2022/07/29 11:36:13;;;;;;;3.00;1.17;;;20.20;99.90;;;;;;5075087;28;20083;-68
2022/07/29 11:38:39;;;;;;;2.15;1.17;;;20.20;99.90;;;;;;5074820;28;20040;-69
2022/07/29 11:41:17;;;;;;;3.40;1.00;;;20.20;99.90;;;;;;5074752;28;20033;-68
2022/07/29 11:43:54;;;;;;;2.15;1.30;;;20.30;99.90;;;;;;5074890;28;20040;-69
2022/07/29 11:46:56;;;;;;;2.15;0.95;;;20.30;99.90;;;;;;5074865;28;20052;-69
2022/07/29 11:49:23;;;;;;;3.92;1.30;;;20.40;99.90;;;;;;5052351;28;20408;-69
2022/07/29 11:51:53;;;;;;;2.63;1.15;;;20.40;99.90;;;;;;5070382;28;20056;-69
2022/07/29 11:54:26;;;;;;;3.85;1.10;;;20.60;99.90;;;;;;5074722;28;20037;-68
2022/07/29 11:56:52;;;;;;;3.63;1.25;;;20.70;99.90;;;;;;5074699;28;20488;-69
2022/07/29 11:59:19;;;;;;;3.63;1.48;;;20.80;99.90;;;;;;5074670;28;20040;-69
2022/07/29 12:01:55;;;;;;;2.90;1.10;;;20.90;99.90;;;;;;5074359;28;20041;-69
2022/07/29 12:04:23;;;;;;;1.83;1.10;;;21.00;99.90;;;;;;5074165;28;20105;-69
2022/07/29 12:06:50;;;;;;;2.10;1.20;;;21.00;99.90;;;;;;5074235;28;20111;-69
2022/07/29 12:09:17;;;;;;;2.05;1.45;;;21.00;99.90;;;;;;5074148;28;20106;-68
2022/07/29 12:11:43;;;;;;;3.47;1.50;;;21.00;99.90;;;;;;5073874;28;20055;-68
2022/07/29 12:14:09;;;;;;;2.20;1.20;;;21.10;99.90;;;;;;5072779;28;20052;-68
2022/07/29 12:16:37;;;;;;;2.33;1.20;;;21.10;99.90;;;;;;5074065;28;20598;-68
2022/07/29 12:19:04;;;;;;;2.20;1.40;;;21.20;99.90;;;;;;5074233;28;20064;-69
2022/07/29 12:21:51;;;;;;;2.60;1.02;;;21.30;99.90;;;;;;5073947;28;20040;-69
2022/07/29 12:24:18;;;;;;;2.63;1.13;;;21.30;99.90;;;;;;5074205;28;20040;-69
2022/07/29 12:26:57;;;;;;;1.90;1.20;;;21.40;99.90;;;;;;5074043;28;20043;-68
2022/07/29 12:29:26;;;;;;;4.03;0.98;;;21.40;99.90;;;;;;5073718;28;20071;-68
2022/07/29 12:31:53;;;;;;;2.30;1.10;;;21.50;99.90;;;;;;5073969;28;20043;-69
2022/07/29 12:34:22;;;;;;;1.88;1.05;;;21.50;99.90;;;;;;5073839;28;20052;-68
2022/07/29 12:36:48;;;;;;;2.70;0.98;;;21.50;99.90;;;;;;5073916;28;20400;-68
2022/07/29 12:39:17;;;;;;;2.47;1.20;;;21.60;99.90;;;;;;5073930;28;20368;-69
2022/07/29 12:41:43;;;;;;;6.70;1.20;;;21.60;99.90;;;;;;5073786;28;20141;-68
2022/07/29 12:44:09;;;;;;;2.45;1.35;;;21.60;99.90;;;;;;5073515;28;20036;-68
2022/07/29 12:46:34;;;;;;;2.60;1.20;;;21.60;99.90;;;;;;5073602;28;20036;-68
2022/07/29 12:49:00;;;;;;;1.92;1.30;;;21.60;99.90;;;;;;5073693;28;20040;-69
2022/07/29 12:51:34;;;;;;;2.30;1.10;;;21.60;99.90;;;;;;5072067;28;20043;-69
2022/07/29 12:54:17;;;;;;;2.45;1.48;;;21.80;99.90;;;;;;5073522;28;20048;-69
2022/07/29 12:56:44;;;;;;;2.30;1.20;;;21.80;99.90;;;;;;5073487;28;20047;-69
2022/07/29 12:59:21;;;;;;;1.88;0.95;;;21.90;99.90;;;;;;5073511;28;20384;-69
2022/07/29 13:01:49;;;;;;;7.00;1.45;;;22.00;99.90;;;;;;5073150;28;20033;-69